sensor_id;sensor_type;location;lat;lon;timestamp;temperature;humidity
31263;DHT22;17892;52.080;9.006;2023-04-29T00:01:52;14.10;99.90
31263;DHT22;17892;52.080;9.006;2023-04-29T00:04:22;14.10;99.90
31263;DHT22;17892;52.080;9.006;2023-04-29T00:06:48;14.00;99.90
31263;DHT22;17892;52.080;9.006;2023-04-29T00:09:13;14.00;99.90
31263;DHT22;17892;52.080;9.006;2023-04-29T00:11:39;14.00;99.90
31263;DHT22;17892;52.080;9.006;2023-04-29T00:14:05;14.00;99.90
31263;DHT22;17892;52.080;9.006;2023-04-29T00:16:30;14.00;99.90
31263;DHT22;17892;52.080;9.006;2023-04-29T00:18:56;14.00;99.90
31263;DHT22;17892;52.080;9.006;2023-04-29T00:21:22;13.90;99.90
31263;DHT22;17892;52.080;9.006;2023-04-29T00:23:48;13.90;99.90
31263;DHT22;17892;52.080;9.006;2023-04-29T00:26:14;13.80;99.90
31263;DHT22;17892;52.080;9.006;2023-04-29T00:28:39;13.70;99.90
31263;DHT22;17892;52.080;9.006;2023-04-29T00:31:05;13.70;99.90
31263;DHT22;17892;52.080;9.006;2023-04-29T00:33:31;13.60;99.90
31263;DHT22;17892;52.080;9.006;2023-04-29T00:35:57;13.60;99.90
31263;DHT22;17892;52.080;9.006;2023-04-29T00:38:23;13.50;99.90
31263;DHT22;17892;52.080;9.006;2023-04-29T00:40:48;13.50;99.90
31263;DHT22;17892;52.080;9.006;2023-04-29T00:43:14;13.50;99.90
31263;DHT22;17892;52.080;9.006;2023-04-29T00:45:40;13.40;99.90
31263;DHT22;17892;52.080;9.006;2023-04-29T00:48:06;13.40;99.90
31263;DHT22;17892;52.080;9.006;2023-04-29T00:50:32;13.30;99.90
31263;DHT22;17892;52.080;9.006;2023-04-29T00:52:58;13.30;99.90
31263;DHT22;17892;52.080;9.006;2023-04-29T00:55:24;13.30;99.90
31263;DHT22;17892;52.080;9.006;2023-04-29T00:57:51;13.20;99.90
31263;DHT22;17892;52.080;9.006;2023-04-29T01:00:17;13.20;99.90
31263;DHT22;17892;52.080;9.006;2023-04-29T01:02:44;13.20;99.90
31263;DHT22;17892;52.080;9.006;2023-04-29T01:05:10;13.20;99.90
31263;DHT22;17892;52.080;9.006;2023-04-29T01:10:44;13.10;99.90
31263;DHT22;17892;52.080;9.006;2023-04-29T01:13:20;13.20;99.90
31263;DHT22;17892;52.080;9.006;2023-04-29T01:16:08;13.20;99.90
31263;DHT22;17892;52.080;9.006;2023-04-29T01:18:40;13.20;99.90
31263;DHT22;17892;52.080;9.006;2023-04-29T01:21:08;13.20;99.90
31263;DHT22;17892;52.080;9.006;2023-04-29T01:23:34;13.20;99.90
31263;DHT22;17892;52.080;9.006;2023-04-29T01:25:59;13.20;99.90
31263;DHT22;17892;52.080;9.006;2023-04-29T01:28:45;13.20;99.90
31263;DHT22;17892;52.080;9.006;2023-04-29T01:31:19;13.20;99.90
31263;DHT22;17892;52.080;9.006;2023-04-29T01:37:13;13.20;99.90
31263;DHT22;17892;52.080;9.006;2023-04-29T01:43:01;13.20;99.90
31263;DHT22;17892;52.080;9.006;2023-04-29T01:45:30;13.20;99.90
31263;DHT22;17892;52.080;9.006;2023-04-29T01:47:57;13.20;99.90
31263;DHT22;17892;52.080;9.006;2023-04-29T01:50:23;13.20;99.90
31263;DHT22;17892;52.080;9.006;2023-04-29T01:52:49;13.10;99.90
31263;DHT22;17892;52.080;9.006;2023-04-29T01:55:15;13.20;99.90
31263;DHT22;17892;52.080;9.006;2023-04-29T01:57:41;13.20;99.90
31263;DHT22;17892;52.080;9.006;2023-04-29T02:00:07;13.10;99.90
31263;DHT22;17892;52.080;9.006;2023-04-29T02:02:33;13.10;99.90
31263;DHT22;17892;52.080;9.006;2023-04-29T02:04:59;13.10;99.90
31263;DHT22;17892;52.080;9.006;2023-04-29T02:07:25;13.10;99.90
31263;DHT22;17892;52.080;9.006;2023-04-29T02:09:50;13.10;99.90
31263;DHT22;17892;52.080;9.006;2023-04-29T02:12:16;13.10;99.90
31263;DHT22;17892;52.080;9.006;2023-04-29T02:14:42;13.10;99.90
31263;DHT22;17892;52.080;9.006;2023-04-29T02:17:08;13.10;99.90
31263;DHT22;17892;52.080;9.006;2023-04-29T02:19:33;13.10;99.90
31263;DHT22;17892;52.080;9.006;2023-04-29T02:21:59;13.10;99.90
31263;DHT22;17892;52.080;9.006;2023-04-29T02:24:25;13.10;99.90
31263;DHT22;17892;52.080;9.006;2023-04-29T02:26:51;13.00;99.90
31263;DHT22;17892;52.080;9.006;2023-04-29T02:29:17;13.00;99.90
31263;DHT22;17892;52.080;9.006;2023-04-29T02:31:43;13.00;99.90
31263;DHT22;17892;52.080;9.006;2023-04-29T02:34:08;12.90;99.90
31263;DHT22;17892;52.080;9.006;2023-04-29T02:36:34;12.90;99.90
31263;DHT22;17892;52.080;9.006;2023-04-29T02:39:00;12.90;99.90
31263;DHT22;17892;52.080;9.006;2023-04-29T02:41:25;12.80;99.90
31263;DHT22;17892;52.080;9.006;2023-04-29T02:43:51;12.80;99.90
31263;DHT22;17892;52.080;9.006;2023-04-29T02:46:17;12.80;99.90
31263;DHT22;17892;52.080;9.006;2023-04-29T02:48:43;12.80;99.90
31263;DHT22;17892;52.080;9.006;2023-04-29T02:51:09;12.70;99.90
31263;DHT22;17892;52.080;9.006;2023-04-29T02:53:35;12.70;99.90
31263;DHT22;17892;52.080;9.006;2023-04-29T02:56:00;12.70;99.90
31263;DHT22;17892;52.080;9.006;2023-04-29T02:58:26;12.70;99.90
31263;DHT22;17892;52.080;9.006;2023-04-29T03:00:52;12.70;99.90
31263;DHT22;17892;52.080;9.006;2023-04-29T03:03:17;12.60;99.90
31263;DHT22;17892;52.080;9.006;2023-04-29T03:05:43;12.60;99.90
31263;DHT22;17892;52.080;9.006;2023-04-29T03:08:09;12.60;99.90
31263;DHT22;17892;52.080;9.006;2023-04-29T03:10:35;12.60;99.90
31263;DHT22;17892;52.080;9.006;2023-04-29T03:13:01;12.60;99.90
31263;DHT22;17892;52.080;9.006;2023-04-29T03:15:27;12.70;99.90
31263;DHT22;17892;52.080;9.006;2023-04-29T03:17:52;12.60;99.90
31263;DHT22;17892;52.080;9.006;2023-04-29T03:20:18;12.50;99.90
31263;DHT22;17892;52.080;9.006;2023-04-29T03:22:44;12.50;99.90
31263;DHT22;17892;52.080;9.006;2023-04-29T03:25:10;12.50;99.90
31263;DHT22;17892;52.080;9.006;2023-04-29T03:27:37;12.50;99.90
31263;DHT22;17892;52.080;9.006;2023-04-29T03:30:04;12.60;99.90
31263;DHT22;17892;52.080;9.006;2023-04-29T03:32:31;12.50;99.90
31263;DHT22;17892;52.080;9.006;2023-04-29T03:34:56;12.50;99.90
31263;DHT22;17892;52.080;9.006;2023-04-29T03:37:22;12.40;99.90
31263;DHT22;17892;52.080;9.006;2023-04-29T03:39:48;12.40;99.90
31263;DHT22;17892;52.080;9.006;2023-04-29T03:42:13;12.40;99.90
31263;DHT22;17892;52.080;9.006;2023-04-29T03:44:39;12.40;99.90
31263;DHT22;17892;52.080;9.006;2023-04-29T03:47:05;12.40;99.90
31263;DHT22;17892;52.080;9.006;2023-04-29T03:49:31;12.30;99.90
31263;DHT22;17892;52.080;9.006;2023-04-29T03:51:56;12.30;99.90
31263;DHT22;17892;52.080;9.006;2023-04-29T03:54:22;12.30;99.90
31263;DHT22;17892;52.080;9.006;2023-04-29T03:56:48;12.30;99.90
31263;DHT22;17892;52.080;9.006;2023-04-29T03:59:13;12.30;99.90
31263;DHT22;17892;52.080;9.006;2023-04-29T04:01:39;12.20;99.90
31263;DHT22;17892;52.080;9.006;2023-04-29T04:04:05;12.30;99.90
31263;DHT22;17892;52.080;9.006;2023-04-29T04:06:30;12.20;99.90
31263;DHT22;17892;52.080;9.006;2023-04-29T04:08:56;12.20;99.90
31263;DHT22;17892;52.080;9.006;2023-04-29T04:11:22;12.20;99.90
31263;DHT22;17892;52.080;9.006;2023-04-29T04:13:47;12.20;99.90
31263;DHT22;17892;52.080;9.006;2023-04-29T04:16:14;12.20;99.90
31263;DHT22;17892;52.080;9.006;2023-04-29T04:18:39;12.20;99.90
31263;DHT22;17892;52.080;9.006;2023-04-29T04:21:09;12.20;99.90
31263;DHT22;17892;52.080;9.006;2023-04-29T04:23:35;12.20;99.90
31263;DHT22;17892;52.080;9.006;2023-04-29T04:26:02;12.10;99.90
31263;DHT22;17892;52.080;9.006;2023-04-29T04:28:28;12.20;99.90
31263;DHT22;17892;52.080;9.006;2023-04-29T04:30:53;12.10;99.90
31263;DHT22;17892;52.080;9.006;2023-04-29T04:33:19;12.10;99.90
31263;DHT22;17892;52.080;9.006;2023-04-29T04:35:45;12.10;99.90
31263;DHT22;17892;52.080;9.006;2023-04-29T04:38:10;12.10;99.90
31263;DHT22;17892;52.080;9.006;2023-04-29T04:40:40;12.00;99.90
31263;DHT22;17892;52.080;9.006;2023-04-29T04:43:06;12.10;99.90
31263;DHT22;17892;52.080;9.006;2023-04-29T04:45:32;12.00;99.90
31263;DHT22;17892;52.080;9.006;2023-04-29T04:47:58;12.00;99.90
31263;DHT22;17892;52.080;9.006;2023-04-29T04:50:26;12.00;99.90
31263;DHT22;17892;52.080;9.006;2023-04-29T04:52:54;12.00;99.90
31263;DHT22;17892;52.080;9.006;2023-04-29T04:55:20;11.90;99.90
31263;DHT22;17892;52.080;9.006;2023-04-29T04:57:46;11.90;99.90
31263;DHT22;17892;52.080;9.006;2023-04-29T05:00:12;12.00;99.90
31263;DHT22;17892;52.080;9.006;2023-04-29T05:02:38;11.90;99.90
31263;DHT22;17892;52.080;9.006;2023-04-29T05:05:04;12.00;99.90
31263;DHT22;17892;52.080;9.006;2023-04-29T05:07:31;11.90;99.90
31263;DHT22;17892;52.080;9.006;2023-04-29T05:09:57;12.00;99.90
31263;DHT22;17892;52.080;9.006;2023-04-29T05:12:23;12.00;99.90
31263;DHT22;17892;52.080;9.006;2023-04-29T05:14:54;11.90;99.90
31263;DHT22;17892;52.080;9.006;2023-04-29T05:17:19;11.90;99.90
31263;DHT22;17892;52.080;9.006;2023-04-29T05:19:45;11.90;99.90
31263;DHT22;17892;52.080;9.006;2023-04-29T05:22:11;11.90;99.90
31263;DHT22;17892;52.080;9.006;2023-04-29T05:24:36;11.90;99.90
31263;DHT22;17892;52.080;9.006;2023-04-29T05:27:02;11.90;99.90
31263;DHT22;17892;52.080;9.006;2023-04-29T05:29:29;11.90;99.90
31263;DHT22;17892;52.080;9.006;2023-04-29T05:31:54;11.90;99.90
31263;DHT22;17892;52.080;9.006;2023-04-29T05:34:20;11.90;99.90
31263;DHT22;17892;52.080;9.006;2023-04-29T05:36:46;12.00;99.90
31263;DHT22;17892;52.080;9.006;2023-04-29T05:39:12;11.90;99.90
31263;DHT22;17892;52.080;9.006;2023-04-29T05:41:37;11.90;99.90
31263;DHT22;17892;52.080;9.006;2023-04-29T05:44:03;12.00;99.90
31263;DHT22;17892;52.080;9.006;2023-04-29T05:46:29;12.00;99.90
31263;DHT22;17892;52.080;9.006;2023-04-29T05:48:54;12.00;99.90
31263;DHT22;17892;52.080;9.006;2023-04-29T05:51:20;12.00;99.90
31263;DHT22;17892;52.080;9.006;2023-04-29T05:53:46;12.00;99.90
31263;DHT22;17892;52.080;9.006;2023-04-29T05:56:11;12.00;99.90
31263;DHT22;17892;52.080;9.006;2023-04-29T05:58:37;12.00;99.90
31263;DHT22;17892;52.080;9.006;2023-04-29T06:01:03;12.00;99.90
31263;DHT22;17892;52.080;9.006;2023-04-29T06:03:28;12.00;99.90
31263;DHT22;17892;52.080;9.006;2023-04-29T06:05:55;12.00;99.90
31263;DHT22;17892;52.080;9.006;2023-04-29T06:08:21;12.00;99.90
31263;DHT22;17892;52.080;9.006;2023-04-29T06:10:46;12.00;99.90
31263;DHT22;17892;52.080;9.006;2023-04-29T06:13:12;12.10;99.90
31263;DHT22;17892;52.080;9.006;2023-04-29T06:15:38;12.10;99.90
31263;DHT22;17892;52.080;9.006;2023-04-29T06:18:03;12.10;99.90
31263;DHT22;17892;52.080;9.006;2023-04-29T06:20:29;12.10;99.90
31263;DHT22;17892;52.080;9.006;2023-04-29T06:22:55;12.10;99.90
31263;DHT22;17892;52.080;9.006;2023-04-29T06:25:20;12.10;99.90
31263;DHT22;17892;52.080;9.006;2023-04-29T06:27:46;12.00;99.90
31263;DHT22;17892;52.080;9.006;2023-04-29T06:30:13;12.10;99.90
31263;DHT22;17892;52.080;9.006;2023-04-29T06:32:39;12.00;99.90
31263;DHT22;17892;52.080;9.006;2023-04-29T06:35:05;12.00;99.90
31263;DHT22;17892;52.080;9.006;2023-04-29T06:37:31;12.00;99.90
31263;DHT22;17892;52.080;9.006;2023-04-29T06:39:57;12.00;99.90
31263;DHT22;17892;52.080;9.006;2023-04-29T06:42:22;12.00;99.90
31263;DHT22;17892;52.080;9.006;2023-04-29T06:44:48;12.00;99.90
31263;DHT22;17892;52.080;9.006;2023-04-29T06:47:14;12.00;99.90
31263;DHT22;17892;52.080;9.006;2023-04-29T06:49:40;12.00;99.90
31263;DHT22;17892;52.080;9.006;2023-04-29T06:52:08;12.00;99.90
31263;DHT22;17892;52.080;9.006;2023-04-29T06:54:33;12.00;99.90
31263;DHT22;17892;52.080;9.006;2023-04-29T06:56:59;12.00;99.90
31263;DHT22;17892;52.080;9.006;2023-04-29T06:59:25;12.10;99.90
31263;DHT22;17892;52.080;9.006;2023-04-29T07:01:50;12.10;99.90
31263;DHT22;17892;52.080;9.006;2023-04-29T07:04:16;12.10;99.90
31263;DHT22;17892;52.080;9.006;2023-04-29T07:06:42;12.10;99.90
31263;DHT22;17892;52.080;9.006;2023-04-29T07:09:11;12.10;99.90
31263;DHT22;17892;52.080;9.006;2023-04-29T07:11:38;12.10;99.90
31263;DHT22;17892;52.080;9.006;2023-04-29T07:14:05;12.10;99.90
31263;DHT22;17892;52.080;9.006;2023-04-29T07:16:31;12.10;99.90
31263;DHT22;17892;52.080;9.006;2023-04-29T07:18:57;12.10;99.90
31263;DHT22;17892;52.080;9.006;2023-04-29T07:21:23;12.10;99.90
31263;DHT22;17892;52.080;9.006;2023-04-29T07:23:49;12.10;99.90
31263;DHT22;17892;52.080;9.006;2023-04-29T07:26:16;12.10;99.90
31263;DHT22;17892;52.080;9.006;2023-04-29T07:28:43;12.10;99.90
31263;DHT22;17892;52.080;9.006;2023-04-29T07:31:09;12.10;99.90
31263;DHT22;17892;52.080;9.006;2023-04-29T07:33:36;12.10;99.90
31263;DHT22;17892;52.080;9.006;2023-04-29T07:36:02;12.20;99.90
31263;DHT22;17892;52.080;9.006;2023-04-29T07:38:28;12.20;99.90
31263;DHT22;17892;52.080;9.006;2023-04-29T07:40:55;12.20;99.90
31263;DHT22;17892;52.080;9.006;2023-04-29T07:43:20;12.30;99.90
31263;DHT22;17892;52.080;9.006;2023-04-29T07:45:46;12.30;99.90
31263;DHT22;17892;52.080;9.006;2023-04-29T07:48:13;12.30;99.90
31263;DHT22;17892;52.080;9.006;2023-04-29T07:50:38;12.40;99.90
31263;DHT22;17892;52.080;9.006;2023-04-29T07:53:04;12.40;99.90
31263;DHT22;17892;52.080;9.006;2023-04-29T07:55:30;12.40;99.90
31263;DHT22;17892;52.080;9.006;2023-04-29T07:57:57;12.50;99.90
31263;DHT22;17892;52.080;9.006;2023-04-29T08:00:24;12.50;99.90
31263;DHT22;17892;52.080;9.006;2023-04-29T08:02:50;12.50;99.90
31263;DHT22;17892;52.080;9.006;2023-04-29T08:05:17;12.60;99.90
31263;DHT22;17892;52.080;9.006;2023-04-29T08:07:43;12.60;99.90
31263;DHT22;17892;52.080;9.006;2023-04-29T08:10:09;12.70;99.90
31263;DHT22;17892;52.080;9.006;2023-04-29T08:12:35;12.70;99.90
31263;DHT22;17892;52.080;9.006;2023-04-29T08:15:00;12.80;99.90
31263;DHT22;17892;52.080;9.006;2023-04-29T08:17:26;12.80;99.90
31263;DHT22;17892;52.080;9.006;2023-04-29T08:19:52;12.90;99.90
31263;DHT22;17892;52.080;9.006;2023-04-29T08:22:18;12.90;99.90
31263;DHT22;17892;52.080;9.006;2023-04-29T08:24:44;13.00;99.90
31263;DHT22;17892;52.080;9.006;2023-04-29T08:27:10;13.10;99.90
31263;DHT22;17892;52.080;9.006;2023-04-29T08:29:35;13.20;99.90
31263;DHT22;17892;52.080;9.006;2023-04-29T08:32:01;13.30;99.90
31263;DHT22;17892;52.080;9.006;2023-04-29T08:34:27;13.30;99.90
31263;DHT22;17892;52.080;9.006;2023-04-29T08:36:53;13.30;99.90
31263;DHT22;17892;52.080;9.006;2023-04-29T08:39:18;13.40;99.90
31263;DHT22;17892;52.080;9.006;2023-04-29T08:41:45;13.40;99.90
31263;DHT22;17892;52.080;9.006;2023-04-29T08:44:15;13.40;99.90
31263;DHT22;17892;52.080;9.006;2023-04-29T08:46:43;13.40;99.90
31263;DHT22;17892;52.080;9.006;2023-04-29T08:49:10;13.50;99.90
31263;DHT22;17892;52.080;9.006;2023-04-29T08:51:37;13.50;99.90
31263;DHT22;17892;52.080;9.006;2023-04-29T08:54:03;13.50;99.90
31263;DHT22;17892;52.080;9.006;2023-04-29T08:56:30;13.60;99.90
31263;DHT22;17892;52.080;9.006;2023-04-29T08:58:56;13.70;99.90
31263;DHT22;17892;52.080;9.006;2023-04-29T09:01:28;13.80;99.90
31263;DHT22;17892;52.080;9.006;2023-04-29T09:07:12;14.10;99.90
31263;DHT22;17892;52.080;9.006;2023-04-29T09:09:41;14.30;99.90
31263;DHT22;17892;52.080;9.006;2023-04-29T09:12:07;14.40;99.90
31263;DHT22;17892;52.080;9.006;2023-04-29T09:14:34;14.50;99.90
31263;DHT22;17892;52.080;9.006;2023-04-29T09:17:00;14.60;99.90
31263;DHT22;17892;52.080;9.006;2023-04-29T09:19:32;14.70;99.90
31263;DHT22;17892;52.080;9.006;2023-04-29T09:21:59;14.80;99.90
31263;DHT22;17892;52.080;9.006;2023-04-29T09:24:27;14.80;99.90
31263;DHT22;17892;52.080;9.006;2023-04-29T09:26:54;14.90;99.90
31263;DHT22;17892;52.080;9.006;2023-04-29T09:29:21;15.00;99.90
31263;DHT22;17892;52.080;9.006;2023-04-29T09:31:49;15.10;99.90
31263;DHT22;17892;52.080;9.006;2023-04-29T09:34:15;15.10;99.90
31263;DHT22;17892;52.080;9.006;2023-04-29T09:36:44;15.20;99.90
31263;DHT22;17892;52.080;9.006;2023-04-29T09:46:55;15.60;99.90
31263;DHT22;17892;52.080;9.006;2023-04-29T09:52:04;15.60;99.90
31263;DHT22;17892;52.080;9.006;2023-04-29T09:54:33;15.60;99.90
31263;DHT22;17892;52.080;9.006;2023-04-29T09:57:01;15.50;99.90
31263;DHT22;17892;52.080;9.006;2023-04-29T09:59:31;15.50;99.90
31263;DHT22;17892;52.080;9.006;2023-04-29T10:01:59;15.50;99.90
31263;DHT22;17892;52.080;9.006;2023-04-29T10:04:26;15.50;99.90
31263;DHT22;17892;52.080;9.006;2023-04-29T10:06:54;15.50;99.90
31263;DHT22;17892;52.080;9.006;2023-04-29T10:09:21;15.60;99.90
31263;DHT22;17892;52.080;9.006;2023-04-29T10:11:52;15.60;99.90
31263;DHT22;17892;52.080;9.006;2023-04-29T10:14:22;15.70;99.90
31263;DHT22;17892;52.080;9.006;2023-04-29T10:17:15;15.70;99.90
31263;DHT22;17892;52.080;9.006;2023-04-29T10:22:47;15.70;99.90
31263;DHT22;17892;52.080;9.006;2023-04-29T10:25:18;15.70;99.90
31263;DHT22;17892;52.080;9.006;2023-04-29T10:27:46;15.70;99.90
31263;DHT22;17892;52.080;9.006;2023-04-29T10:30:14;15.60;99.90
31263;DHT22;17892;52.080;9.006;2023-04-29T10:32:43;15.60;99.90
31263;DHT22;17892;52.080;9.006;2023-04-29T10:35:11;15.60;99.90
31263;DHT22;17892;52.080;9.006;2023-04-29T10:37:41;15.50;99.90
31263;DHT22;17892;52.080;9.006;2023-04-29T10:40:15;15.40;99.90
31263;DHT22;17892;52.080;9.006;2023-04-29T10:42:50;15.20;99.90
31263;DHT22;17892;52.080;9.006;2023-04-29T10:45:26;15.10;99.90
31263;DHT22;17892;52.080;9.006;2023-04-29T10:53:18;14.70;99.90
31263;DHT22;17892;52.080;9.006;2023-04-29T10:56:04;14.50;99.90
31263;DHT22;17892;52.080;9.006;2023-04-29T10:58:45;14.40;99.90
31263;DHT22;17892;52.080;9.006;2023-04-29T11:01:15;14.30;99.90
31263;DHT22;17892;52.080;9.006;2023-04-29T11:03:54;14.20;99.90
31263;DHT22;17892;52.080;9.006;2023-04-29T11:06:45;14.20;99.90
31263;DHT22;17892;52.080;9.006;2023-04-29T11:09:26;14.20;99.90
31263;DHT22;17892;52.080;9.006;2023-04-29T11:11:58;14.20;99.90
31263;DHT22;17892;52.080;9.006;2023-04-29T11:14:41;14.20;99.90
31263;DHT22;17892;52.080;9.006;2023-04-29T11:17:09;14.30;99.90
31263;DHT22;17892;52.080;9.006;2023-04-29T11:19:44;14.30;99.90
31263;DHT22;17892;52.080;9.006;2023-04-29T11:24:59;14.50;99.90
31263;DHT22;17892;52.080;9.006;2023-04-29T11:27:36;14.70;99.90
31263;DHT22;17892;52.080;9.006;2023-04-29T11:30:05;14.90;99.90
31263;DHT22;17892;52.080;9.006;2023-04-29T11:32:35;15.10;99.90
31263;DHT22;17892;52.080;9.006;2023-04-29T11:35:11;15.30;99.90
31263;DHT22;17892;52.080;9.006;2023-04-29T11:37:37;15.40;99.90
31263;DHT22;17892;52.080;9.006;2023-04-29T11:40:04;15.50;99.90
31263;DHT22;17892;52.080;9.006;2023-04-29T11:42:34;15.60;99.90
31263;DHT22;17892;52.080;9.006;2023-04-29T11:45:03;15.70;99.90
31263;DHT22;17892;52.080;9.006;2023-04-29T11:47:29;15.70;99.90
31263;DHT22;17892;52.080;9.006;2023-04-29T11:50:06;15.60;99.90
31263;DHT22;17892;52.080;9.006;2023-04-29T11:52:39;15.50;99.90
31263;DHT22;17892;52.080;9.006;2023-04-29T11:55:09;15.40;99.90
31263;DHT22;17892;52.080;9.006;2023-04-29T11:57:36;15.40;99.90
31263;DHT22;17892;52.080;9.006;2023-04-29T12:00:03;15.30;99.90
31263;DHT22;17892;52.080;9.006;2023-04-29T12:04:56;15.20;99.90
31263;DHT22;17892;52.080;9.006;2023-04-29T12:07:22;15.20;99.90
31263;DHT22;17892;52.080;9.006;2023-04-29T12:09:49;15.20;99.90
31263;DHT22;17892;52.080;9.006;2023-04-29T12:12:15;15.20;99.90
31263;DHT22;17892;52.080;9.006;2023-04-29T12:14:41;15.20;99.90
31263;DHT22;17892;52.080;9.006;2023-04-29T12:17:08;15.30;99.90
31263;DHT22;17892;52.080;9.006;2023-04-29T12:19:34;15.40;99.90
31263;DHT22;17892;52.080;9.006;2023-04-29T12:22:04;15.50;99.90
31263;DHT22;17892;52.080;9.006;2023-04-29T12:24:36;15.60;99.90
31263;DHT22;17892;52.080;9.006;2023-04-29T12:27:03;15.80;99.90
31263;DHT22;17892;52.080;9.006;2023-04-29T12:29:31;16.00;99.90
31263;DHT22;17892;52.080;9.006;2023-04-29T12:31:57;16.10;99.90
31263;DHT22;17892;52.080;9.006;2023-04-29T12:34:31;16.20;99.90
31263;DHT22;17892;52.080;9.006;2023-04-29T12:37:00;16.30;99.90
31263;DHT22;17892;52.080;9.006;2023-04-29T12:39:27;16.40;99.90
31263;DHT22;17892;52.080;9.006;2023-04-29T12:41:59;16.40;99.90
31263;DHT22;17892;52.080;9.006;2023-04-29T12:44:37;16.50;99.90
31263;DHT22;17892;52.080;9.006;2023-04-29T12:47:10;16.50;99.90
31263;DHT22;17892;52.080;9.006;2023-04-29T12:49:36;16.50;99.90
31263;DHT22;17892;52.080;9.006;2023-04-29T12:52:04;16.50;99.90
31263;DHT22;17892;52.080;9.006;2023-04-29T12:54:33;16.40;99.90
31263;DHT22;17892;52.080;9.006;2023-04-29T12:57:00;16.30;99.90
31263;DHT22;17892;52.080;9.006;2023-04-29T12:59:27;16.30;99.90
31263;DHT22;17892;52.080;9.006;2023-04-29T13:01:52;16.30;99.90
31263;DHT22;17892;52.080;9.006;2023-04-29T13:04:18;16.30;99.90
31263;DHT22;17892;52.080;9.006;2023-04-29T13:06:44;16.30;99.90
31263;DHT22;17892;52.080;9.006;2023-04-29T13:09:10;16.20;99.90
31263;DHT22;17892;52.080;9.006;2023-04-29T13:11:37;16.20;99.90
31263;DHT22;17892;52.080;9.006;2023-04-29T13:14:06;16.20;99.90
31263;DHT22;17892;52.080;9.006;2023-04-29T13:16:32;16.20;99.90
31263;DHT22;17892;52.080;9.006;2023-04-29T13:18:59;16.20;99.90
31263;DHT22;17892;52.080;9.006;2023-04-29T13:21:26;16.20;99.90
31263;DHT22;17892;52.080;9.006;2023-04-29T13:23:56;16.10;99.90
31263;DHT22;17892;52.080;9.006;2023-04-29T13:26:22;16.10;99.90
31263;DHT22;17892;52.080;9.006;2023-04-29T13:28:49;16.00;99.90
31263;DHT22;17892;52.080;9.006;2023-04-29T13:31:16;16.00;99.90
31263;DHT22;17892;52.080;9.006;2023-04-29T13:33:41;15.90;99.90
31263;DHT22;17892;52.080;9.006;2023-04-29T13:36:08;15.90;99.90
31263;DHT22;17892;52.080;9.006;2023-04-29T13:38:34;15.90;99.90
31263;DHT22;17892;52.080;9.006;2023-04-29T13:41:00;15.80;99.90
31263;DHT22;17892;52.080;9.006;2023-04-29T13:43:25;15.80;99.90
31263;DHT22;17892;52.080;9.006;2023-04-29T13:45:51;15.70;99.90
31263;DHT22;17892;52.080;9.006;2023-04-29T13:48:17;15.70;99.90
31263;DHT22;17892;52.080;9.006;2023-04-29T13:50:43;15.60;99.90
31263;DHT22;17892;52.080;9.006;2023-04-29T13:53:10;15.60;99.90
31263;DHT22;17892;52.080;9.006;2023-04-29T13:55:35;15.60;99.90
31263;DHT22;17892;52.080;9.006;2023-04-29T13:58:01;15.60;99.90
31263;DHT22;17892;52.080;9.006;2023-04-29T14:00:27;15.60;99.90
31263;DHT22;17892;52.080;9.006;2023-04-29T14:02:54;15.60;99.90
31263;DHT22;17892;52.080;9.006;2023-04-29T14:05:19;15.60;99.90
31263;DHT22;17892;52.080;9.006;2023-04-29T14:07:45;15.80;99.90
31263;DHT22;17892;52.080;9.006;2023-04-29T14:10:11;15.80;99.90
31263;DHT22;17892;52.080;9.006;2023-04-29T14:12:36;15.80;99.90
31263;DHT22;17892;52.080;9.006;2023-04-29T14:15:02;15.90;99.90
31263;DHT22;17892;52.080;9.006;2023-04-29T14:17:28;16.00;99.90
31263;DHT22;17892;52.080;9.006;2023-04-29T14:19:54;16.00;99.90
31263;DHT22;17892;52.080;9.006;2023-04-29T14:22:19;16.00;99.90
31263;DHT22;17892;52.080;9.006;2023-04-29T14:24:45;15.90;99.90
31263;DHT22;17892;52.080;9.006;2023-04-29T14:27:11;15.90;99.90
31263;DHT22;17892;52.080;9.006;2023-04-29T14:29:37;15.90;99.90
31263;DHT22;17892;52.080;9.006;2023-04-29T14:32:02;15.90;99.90
31263;DHT22;17892;52.080;9.006;2023-04-29T14:34:28;15.90;99.90
31263;DHT22;17892;52.080;9.006;2023-04-29T14:36:54;15.90;99.90
31263;DHT22;17892;52.080;9.006;2023-04-29T14:39:23;16.00;99.90
31263;DHT22;17892;52.080;9.006;2023-04-29T14:41:50;16.20;99.90
31263;DHT22;17892;52.080;9.006;2023-04-29T14:44:15;16.40;99.90
31263;DHT22;17892;52.080;9.006;2023-04-29T14:46:41;16.70;99.90
31263;DHT22;17892;52.080;9.006;2023-04-29T14:49:07;17.00;99.90
31263;DHT22;17892;52.080;9.006;2023-04-29T14:51:32;17.10;99.90
31263;DHT22;17892;52.080;9.006;2023-04-29T14:53:58;17.30;99.90
31263;DHT22;17892;52.080;9.006;2023-04-29T14:56:24;17.40;99.90
31263;DHT22;17892;52.080;9.006;2023-04-29T14:58:50;17.60;99.90
31263;DHT22;17892;52.080;9.006;2023-04-29T15:01:16;17.70;99.90
31263;DHT22;17892;52.080;9.006;2023-04-29T15:03:41;17.70;99.90
31263;DHT22;17892;52.080;9.006;2023-04-29T15:06:07;17.70;99.90
31263;DHT22;17892;52.080;9.006;2023-04-29T15:08:32;17.70;99.90
31263;DHT22;17892;52.080;9.006;2023-04-29T15:10:58;17.50;99.90
31263;DHT22;17892;52.080;9.006;2023-04-29T15:13:24;17.40;99.90
31263;DHT22;17892;52.080;9.006;2023-04-29T15:15:50;17.20;99.90
31263;DHT22;17892;52.080;9.006;2023-04-29T15:18:16;17.10;99.90
31263;DHT22;17892;52.080;9.006;2023-04-29T15:20:42;16.90;99.90
31263;DHT22;17892;52.080;9.006;2023-04-29T15:23:07;16.80;99.90
31263;DHT22;17892;52.080;9.006;2023-04-29T15:25:33;16.70;99.90
31263;DHT22;17892;52.080;9.006;2023-04-29T15:27:59;16.70;99.90
31263;DHT22;17892;52.080;9.006;2023-04-29T15:30:26;16.60;99.90
31263;DHT22;17892;52.080;9.006;2023-04-29T15:32:53;16.50;99.90
31263;DHT22;17892;52.080;9.006;2023-04-29T15:35:19;16.60;99.90
31263;DHT22;17892;52.080;9.006;2023-04-29T15:37:45;16.50;99.90
31263;DHT22;17892;52.080;9.006;2023-04-29T15:40:11;16.50;99.90
31263;DHT22;17892;52.080;9.006;2023-04-29T15:42:37;16.50;99.90
31263;DHT22;17892;52.080;9.006;2023-04-29T15:45:03;16.50;99.90
31263;DHT22;17892;52.080;9.006;2023-04-29T15:47:29;16.50;99.90
31263;DHT22;17892;52.080;9.006;2023-04-29T15:49:54;16.50;99.90
31263;DHT22;17892;52.080;9.006;2023-04-29T15:52:23;16.40;99.90
31263;DHT22;17892;52.080;9.006;2023-04-29T15:54:49;16.40;99.90
31263;DHT22;17892;52.080;9.006;2023-04-29T15:57:15;16.30;99.90
31263;DHT22;17892;52.080;9.006;2023-04-29T15:59:40;16.30;99.90
31263;DHT22;17892;52.080;9.006;2023-04-29T16:02:06;16.20;99.90
31263;DHT22;17892;52.080;9.006;2023-04-29T16:04:35;16.20;99.90
31263;DHT22;17892;52.080;9.006;2023-04-29T16:07:02;16.20;99.90